sensor_id;sensor_type;location;lat;lon;timestamp;P1;durP1;ratioP1;P2;durP2;ratioP2
4959;SDS011;2495;48.200;11.532;2023-04-23T04:57:08;1.00;;;0.50;;
4959;SDS011;2495;48.200;11.532;2023-04-23T05:02:09;1.10;;;0.50;;
4959;SDS011;2495;48.200;11.532;2023-04-23T05:07:10;1.03;;;0.60;;
4959;SDS011;2495;48.200;11.532;2023-04-23T05:12:11;1.10;;;0.57;;
4959;SDS011;2495;48.200;11.532;2023-04-23T05:17:13;1.10;;;0.50;;
4959;SDS011;2495;48.200;11.532;2023-04-23T05:22:14;1.00;;;0.50;;
4959;SDS011;2495;48.200;11.532;2023-04-23T05:27:15;1.00;;;0.50;;
4959;SDS011;2495;48.200;11.532;2023-04-23T05:32:17;1.10;;;0.50;;
4959;SDS011;2495;48.200;11.532;2023-04-23T05:37:19;1.10;;;0.60;;
4959;SDS011;2495;48.200;11.532;2023-04-23T05:42:20;1.00;;;0.50;;
4959;SDS011;2495;48.200;11.532;2023-04-23T05:47:22;1.00;;;0.60;;
4959;SDS011;2495;48.200;11.532;2023-04-23T05:52:27;1.00;;;0.50;;
4959;SDS011;2495;48.200;11.532;2023-04-23T05:57:28;1.00;;;0.50;;
4959;SDS011;2495;48.200;11.532;2023-04-23T06:02:30;1.00;;;0.60;;
4959;SDS011;2495;48.200;11.532;2023-04-23T06:07:31;1.10;;;0.60;;
4959;SDS011;2495;48.200;11.532;2023-04-23T06:12:33;1.00;;;0.50;;
4959;SDS011;2495;48.200;11.532;2023-04-23T06:17:34;1.00;;;0.50;;
4959;SDS011;2495;48.200;11.532;2023-04-23T06:22:35;1.00;;;0.50;;
4959;SDS011;2495;48.200;11.532;2023-04-23T06:27:37;1.20;;;0.80;;
4959;SDS011;2495;48.200;11.532;2023-04-23T06:32:38;1.00;;;0.60;;
4959;SDS011;2495;48.200;11.532;2023-04-23T06:37:40;1.00;;;0.50;;
4959;SDS011;2495;48.200;11.532;2023-04-23T06:42:41;1.10;;;0.50;;
4959;SDS011;2495;48.200;11.532;2023-04-23T06:47:43;1.00;;;0.60;;
4959;SDS011;2495;48.200;11.532;2023-04-23T06:52:44;1.00;;;0.50;;
4959;SDS011;2495;48.200;11.532;2023-04-23T06:57:46;1.00;;;0.50;;
4959;SDS011;2495;48.200;11.532;2023-04-23T07:02:47;1.00;;;0.60;;
4959;SDS011;2495;48.200;11.532;2023-04-23T07:07:48;1.10;;;0.70;;
4959;SDS011;2495;48.200;11.532;2023-04-23T07:12:50;1.00;;;0.60;;
4959;SDS011;2495;48.200;11.532;2023-04-23T07:17:51;1.00;;;0.60;;
4959;SDS011;2495;48.200;11.532;2023-04-23T07:22:52;1.00;;;0.50;;
4959;SDS011;2495;48.200;11.532;2023-04-23T07:27:54;1.00;;;0.60;;
4959;SDS011;2495;48.200;11.532;2023-04-23T07:32:55;1.00;;;0.60;;
4959;SDS011;2495;48.200;11.532;2023-04-23T07:37:57;1.00;;;0.50;;
4959;SDS011;2495;48.200;11.532;2023-04-23T07:42:58;1.00;;;0.50;;
4959;SDS011;2495;48.200;11.532;2023-04-23T12:47:41;1.20;;;0.50;;
4959;SDS011;2495;48.200;11.532;2023-04-23T14:25:39;1.10;;;0.60;;
4959;SDS011;2495;48.200;11.532;2023-04-23T14:30:40;1.10;;;0.60;;
4959;SDS011;2495;48.200;11.532;2023-04-23T14:35:41;1.40;;;0.60;;
4959;SDS011;2495;48.200;11.532;2023-04-23T14:40:43;1.83;;;0.75;;
4959;SDS011;2495;48.200;11.532;2023-04-23T14:45:44;1.20;;;0.50;;
4959;SDS011;2495;48.200;11.532;2023-04-23T14:50:45;1.10;;;0.50;;
4959;SDS011;2495;48.200;11.532;2023-04-23T14:55:47;1.13;;;0.50;;
4959;SDS011;2495;48.200;11.532;2023-04-23T15:00:48;1.10;;;0.50;;
4959;SDS011;2495;48.200;11.532;2023-04-23T15:05:49;1.10;;;0.50;;
4959;SDS011;2495;48.200;11.532;2023-04-23T15:10:51;1.10;;;0.50;;
4959;SDS011;2495;48.200;11.532;2023-04-23T15:15:55;1.10;;;0.50;;
4959;SDS011;2495;48.200;11.532;2023-04-23T15:20:57;1.10;;;0.50;;
4959;SDS011;2495;48.200;11.532;2023-04-23T15:25:58;1.10;;;0.60;;
4959;SDS011;2495;48.200;11.532;2023-04-23T15:30:59;1.20;;;0.70;;
4959;SDS011;2495;48.200;11.532;2023-04-23T15:36:01;1.30;;;0.60;;
4959;SDS011;2495;48.200;11.532;2023-04-23T15:41:02;1.10;;;0.50;;
4959;SDS011;2495;48.200;11.532;2023-04-23T15:46:03;1.10;;;0.60;;
4959;SDS011;2495;48.200;11.532;2023-04-23T15:51:05;1.10;;;0.50;;
4959;SDS011;2495;48.200;11.532;2023-04-23T15:56:06;1.10;;;0.60;;
4959;SDS011;2495;48.200;11.532;2023-04-23T16:01:07;1.03;;;0.50;;
4959;SDS011;2495;48.200;11.532;2023-04-23T16:06:09;1.10;;;0.50;;
4959;SDS011;2495;48.200;11.532;2023-04-23T16:11:10;1.10;;;0.50;;
4959;SDS011;2495;48.200;11.532;2023-04-23T16:16:11;1.10;;;0.60;;
4959;SDS011;2495;48.200;11.532;2023-04-23T16:21:13;1.03;;;0.50;;
4959;SDS011;2495;48.200;11.532;2023-04-23T16:26:14;1.00;;;0.50;;
4959;SDS011;2495;48.200;11.532;2023-04-23T16:31:16;1.10;;;0.60;;
4959;SDS011;2495;48.200;11.532;2023-04-23T16:36:17;1.10;;;0.50;;
4959;SDS011;2495;48.200;11.532;2023-04-23T16:41:18;1.57;;;1.00;;
4959;SDS011;2495;48.200;11.532;2023-04-23T16:46:20;1.20;;;0.90;;
4959;SDS011;2495;48.200;11.532;2023-04-23T16:51:22;1.03;;;0.60;;
4959;SDS011;2495;48.200;11.532;2023-04-23T16:56:23;1.00;;;0.57;;
4959;SDS011;2495;48.200;11.532;2023-04-23T17:01:24;1.00;;;0.50;;
4959;SDS011;2495;48.200;11.532;2023-04-23T17:06:29;1.00;;;0.50;;
4959;SDS011;2495;48.200;11.532;2023-04-23T17:11:30;1.30;;;0.70;;
4959;SDS011;2495;48.200;11.532;2023-04-23T17:16:31;1.00;;;0.50;;
4959;SDS011;2495;48.200;11.532;2023-04-23T17:21:33;1.00;;;0.50;;
4959;SDS011;2495;48.200;11.532;2023-04-23T17:26:34;1.00;;;0.50;;
4959;SDS011;2495;48.200;11.532;2023-04-23T17:31:36;1.00;;;0.50;;
4959;SDS011;2495;48.200;11.532;2023-04-23T17:36:37;1.10;;;0.60;;
4959;SDS011;2495;48.200;11.532;2023-04-23T17:41:45;1.00;;;0.50;;
4959;SDS011;2495;48.200;11.532;2023-04-23T17:46:47;1.00;;;0.50;;
4959;SDS011;2495;48.200;11.532;2023-04-23T17:51:48;1.00;;;0.50;;
4959;SDS011;2495;48.200;11.532;2023-04-23T17:56:49;1.00;;;0.53;;
4959;SDS011;2495;48.200;11.532;2023-04-23T18:01:51;1.02;;;0.52;;
4959;SDS011;2495;48.200;11.532;2023-04-23T18:06:52;1.00;;;0.60;;
4959;SDS011;2495;48.200;11.532;2023-04-23T18:11:54;1.00;;;0.50;;
4959;SDS011;2495;48.200;11.532;2023-04-23T18:16:55;1.30;;;1.00;;
4959;SDS011;2495;48.200;11.532;2023-04-23T18:21:56;1.00;;;0.50;;
4959;SDS011;2495;48.200;11.532;2023-04-23T18:26:58;1.00;;;0.50;;
4959;SDS011;2495;48.200;11.532;2023-04-23T18:31:59;1.00;;;0.50;;
4959;SDS011;2495;48.200;11.532;2023-04-23T18:37:01;1.00;;;0.60;;
4959;SDS011;2495;48.200;11.532;2023-04-23T18:42:02;1.00;;;0.50;;
4959;SDS011;2495;48.200;11.532;2023-04-23T18:47:03;1.00;;;0.50;;
4959;SDS011;2495;48.200;11.532;2023-04-23T18:52:05;1.00;;;0.53;;
4959;SDS011;2495;48.200;11.532;2023-04-23T18:57:06;1.00;;;0.50;;
4959;SDS011;2495;48.200;11.532;2023-04-23T19:02:09;1.00;;;0.60;;
4959;SDS011;2495;48.200;11.532;2023-04-23T19:07:10;1.00;;;0.50;;
4959;SDS011;2495;48.200;11.532;2023-04-23T19:12:11;1.00;;;0.50;;
4959;SDS011;2495;48.200;11.532;2023-04-23T19:17:13;1.00;;;0.50;;
4959;SDS011;2495;48.200;11.532;2023-04-23T19:22:14;1.00;;;0.60;;
4959;SDS011;2495;48.200;11.532;2023-04-23T19:27:15;1.00;;;0.50;;
4959;SDS011;2495;48.200;11.532;2023-04-23T19:32:16;1.00;;;0.50;;
4959;SDS011;2495;48.200;11.532;2023-04-23T19:37:18;1.00;;;0.60;;
4959;SDS011;2495;48.200;11.532;2023-04-23T19:42:19;1.00;;;0.60;;
4959;SDS011;2495;48.200;11.532;2023-04-23T19:47:20;1.00;;;0.50;;
4959;SDS011;2495;48.200;11.532;2023-04-23T19:52:22;1.00;;;0.50;;
4959;SDS011;2495;48.200;11.532;2023-04-23T19:57:23;1.00;;;0.60;;
4959;SDS011;2495;48.200;11.532;2023-04-23T20:02:25;1.30;;;0.80;;
4959;SDS011;2495;48.200;11.532;2023-04-23T20:07:26;1.10;;;0.60;;
4959;SDS011;2495;48.200;11.532;2023-04-23T20:12:27;1.00;;;0.50;;
4959;SDS011;2495;48.200;11.532;2023-04-23T20:17:29;1.00;;;0.60;;
4959;SDS011;2495;48.200;11.532;2023-04-23T20:22:31;1.20;;;1.00;;
4959;SDS011;2495;48.200;11.532;2023-04-23T20:27:32;1.40;;;1.30;;
4959;SDS011;2495;48.200;11.532;2023-04-23T20:32:33;1.70;;;1.60;;
4959;SDS011;2495;48.200;11.532;2023-04-23T20:37:35;6.83;;;6.43;;
4959;SDS011;2495;48.200;11.532;2023-04-23T20:42:37;4.93;;;4.67;;
4959;SDS011;2495;48.200;11.532;2023-04-23T20:47:38;4.40;;;4.20;;
4959;SDS011;2495;48.200;11.532;2023-04-23T20:52:39;9.90;;;9.40;;
4959;SDS011;2495;48.200;11.532;2023-04-23T20:57:41;9.90;;;9.40;;
4959;SDS011;2495;48.200;11.532;2023-04-23T21:02:42;8.57;;;8.17;;
4959;SDS011;2495;48.200;11.532;2023-04-23T21:07:44;9.67;;;9.17;;
4959;SDS011;2495;48.200;11.532;2023-04-23T21:12:45;9.37;;;8.93;;
4959;SDS011;2495;48.200;11.532;2023-04-23T21:17:47;12.87;;;12.17;;
4959;SDS011;2495;48.200;11.532;2023-04-23T21:22:48;12.07;;;11.47;;
4959;SDS011;2495;48.200;11.532;2023-04-23T21:27:50;11.37;;;10.87;;
4959;SDS011;2495;48.200;11.532;2023-04-23T21:32:51;13.30;;;12.60;;
4959;SDS011;2495;48.200;11.532;2023-04-23T21:37:52;10.63;;;10.13;;
4959;SDS011;2495;48.200;11.532;2023-04-23T21:42:54;10.80;;;10.30;;
4959;SDS011;2495;48.200;11.532;2023-04-23T21:47:55;9.00;;;8.60;;
4959;SDS011;2495;48.200;11.532;2023-04-23T21:52:57;9.20;;;8.80;;
4959;SDS011;2495;48.200;11.532;2023-04-23T21:58:01;9.73;;;9.23;;
4959;SDS011;2495;48.200;11.532;2023-04-23T22:03:02;9.03;;;8.63;;
4959;SDS011;2495;48.200;11.532;2023-04-23T22:08:04;11.90;;;11.30;;
4959;SDS011;2495;48.200;11.532;2023-04-23T22:13:05;12.60;;;12.00;;
4959;SDS011;2495;48.200;11.532;2023-04-23T22:18:06;11.40;;;10.80;;
4959;SDS011;2495;48.200;11.532;2023-04-23T22:23:08;11.95;;;11.35;;
4959;SDS011;2495;48.200;11.532;2023-04-23T22:28:10;12.07;;;11.47;;
4959;SDS011;2495;48.200;11.532;2023-04-23T22:33:11;14.63;;;13.93;;
4959;SDS011;2495;48.200;11.532;2023-04-23T22:38:13;13.13;;;12.48;;
4959;SDS011;2495;48.200;11.532;2023-04-23T22:43:14;16.30;;;15.50;;
4959;SDS011;2495;48.200;11.532;2023-04-23T22:48:15;17.53;;;16.73;;
4959;SDS011;2495;48.200;11.532;2023-04-23T22:53:17;14.30;;;13.60;;
4959;SDS011;2495;48.200;11.532;2023-04-23T22:58:18;9.48;;;8.98;;
4959;SDS011;2495;48.200;11.532;2023-04-23T23:03:21;6.10;;;5.80;;
4959;SDS011;2495;48.200;11.532;2023-04-23T23:08:22;4.10;;;3.90;;
4959;SDS011;2495;48.200;11.532;2023-04-23T23:13:24;3.97;;;3.77;;
4959;SDS011;2495;48.200;11.532;2023-04-23T23:18:25;3.70;;;3.50;;
4959;SDS011;2495;48.200;11.532;2023-04-23T23:23:27;3.90;;;3.70;;
4959;SDS011;2495;48.200;11.532;2023-04-23T23:28:28;2.60;;;2.40;;
4959;SDS011;2495;48.200;11.532;2023-04-23T23:33:29;2.93;;;2.73;;
4959;SDS011;2495;48.200;11.532;2023-04-23T23:38:31;7.00;;;6.70;;
4959;SDS011;2495;48.200;11.532;2023-04-23T23:43:32;7.80;;;7.40;;
4959;SDS011;2495;48.200;11.532;2023-04-23T23:48:33;5.90;;;5.60;;
4959;SDS011;2495;48.200;11.532;2023-04-23T23:53:34;9.18;;;8.68;;
4959;SDS011;2495;48.200;11.532;2023-04-23T23:58:36;10.82;;;10.32;;
